Time;durP1;ratioP1;P1;durP2;ratioP2;P2;SDS_P1;SDS_P2;PMS_P1;PMS_P2;Temp;Humidity;BMP_temperature;BMP_pressure;BME280_temperature;BME280_humidity;BME280_pressure;Samples;Min_cycle;Max_cycle;Signal;HPM_P1;HPM_P2
2022/12/04 00:00:35;;;;;;;13.63;12.10;;;;;;;-0.28;100.00;96786.28;5030194;28;20196;-72
2022/12/04 00:03:03;;;;;;;13.10;11.87;;;;;;;-0.31;100.00;96780.38;5003890;28;20195;-69
2022/12/04 00:05:30;;;;;;;13.00;11.57;;;;;;;-0.29;100.00;96788.06;5029453;28;20231;-72
2022/12/04 00:07:58;;;;;;;13.23;11.87;;;;;;;-0.34;100.00;96798.03;4991435;28;20219;-72
2022/12/04 00:10:26;;;;;;;12.73;11.40;;;;;;;-0.36;100.00;96797.34;5025604;28;20211;-70
2022/12/04 00:12:53;;;;;;;14.70;11.43;;;;;;;-0.32;100.00;96798.72;4991366;28;20233;-70
2022/12/04 00:15:22;;;;;;;12.90;11.70;;;;;;;-0.31;100.00;96801.19;4990062;28;20252;-70
2022/12/04 00:17:53;;;;;;;12.67;11.47;;;;;;;-0.30;100.00;96796.81;5027971;28;20206;-68
2022/12/04 00:20:21;;;;;;;13.83;12.37;;;;;;;-0.28;100.00;96792.31;4995865;28;20211;-69
2022/12/04 00:22:49;;;;;;;14.53;12.10;;;;;;;-0.25;100.00;96791.22;5031534;28;20295;-70
2022/12/04 00:25:17;;;;;;;14.63;12.63;;;;;;;-0.30;100.00;96787.22;5012119;28;21077;-70
2022/12/04 00:27:45;;;;;;;14.23;12.07;;;;;;;-0.27;100.00;96780.09;4997477;28;25378;-71
2022/12/04 00:30:13;;;;;;;11.17;10.07;;;;;;;-0.26;100.00;96781.75;5023678;28;20205;-72
2022/12/04 00:32:42;;;;;;;13.13;11.77;;;;;;;-0.25;100.00;96786.84;5027652;28;20196;-70
2022/12/04 00:35:10;;;;;;;12.67;11.37;;;;;;;-0.23;100.00;96782.34;5029575;28;20223;-73
2022/12/04 00:37:38;;;;;;;12.30;11.10;;;;;;;-0.17;100.00;96775.81;5000995;28;20212;-71
2022/12/04 00:40:07;;;;;;;12.93;10.90;;;;;;;-0.19;100.00;96788.13;5011898;28;20235;-72
2022/12/04 00:42:35;;;;;;;12.17;10.87;;;;;;;-0.18;100.00;96776.78;4994563;28;20203;-71
2022/12/04 00:45:04;;;;;;;14.00;11.40;;;;;;;-0.18;100.00;96774.16;5024489;28;20232;-73
2022/12/04 00:47:32;;;;;;;12.33;11.10;;;;;;;-0.17;100.00;96774.03;5028336;28;20219;-69
2022/12/04 00:50:01;;;;;;;13.60;12.03;;;;;;;-0.12;100.00;96773.66;5028341;28;20199;-69
2022/12/04 00:52:28;;;;;;;12.23;10.93;;;;;;;-0.18;100.00;96766.34;5008910;28;20762;-70
2022/12/04 00:54:56;;;;;;;12.60;11.20;;;;;;;-0.18;100.00;96771.56;5008537;28;20817;-69
2022/12/04 00:57:23;;;;;;;12.30;10.80;;;;;;;-0.23;100.00;96765.88;5029967;28;20203;-71
2022/12/04 00:59:51;;;;;;;12.47;10.83;;;;;;;-0.16;100.00;96767.06;4990444;28;20208;-72
2022/12/04 01:02:19;;;;;;;12.23;10.93;;;;;;;-0.14;100.00;96767.75;5025125;28;20196;-71
2022/12/04 01:04:47;;;;;;;13.47;11.73;;;;;;;-0.12;100.00;96778.88;5017502;28;20199;-72
2022/12/04 01:07:16;;;;;;;11.40;9.97;;;;;;;-0.16;100.00;96772.25;5024284;28;20192;-70
2022/12/04 01:09:44;;;;;;;12.63;11.33;;;;;;;-0.20;100.00;96770.84;4986593;28;20619;-71
2022/12/04 01:12:11;;;;;;;11.30;10.20;;;;;;;-0.19;100.00;96767.28;5031391;28;20702;-71
2022/12/04 01:14:46;;;;;;;12.73;11.53;;;;;;;-0.25;100.00;96760.81;4995789;28;20223;-71
2022/12/04 01:17:14;;;;;;;12.80;11.50;;;;;;;-0.18;100.00;96761.16;5026678;28;20212;-70
2022/12/04 01:19:42;;;;;;;13.97;11.83;;;;;;;-0.12;100.00;96762.41;5029157;28;20219;-71
2022/12/04 01:22:09;;;;;;;12.30;11.10;;;;;;;-0.19;100.00;96757.72;5027799;28;20207;-71
2022/12/04 01:24:38;;;;;;;13.33;11.93;;;;;;;-0.22;100.00;96747.53;5010062;28;20207;-69
2022/12/04 01:27:07;;;;;;;11.30;9.97;;;;;;;-0.22;100.00;96744.94;5010883;28;20258;-71
2022/12/04 01:29:35;;;;;;;13.33;11.67;;;;;;;-0.21;100.00;96757.00;4995693;28;20211;-70
2022/12/04 01:32:03;;;;;;;11.70;10.23;;;;;;;-0.19;100.00;96751.66;5017927;28;20298;-73
2022/12/04 01:34:31;;;;;;;11.47;10.37;;;;;;;-0.16;100.00;96754.03;5029856;28;20220;-70
2022/12/04 01:36:59;;;;;;;11.40;10.23;;;;;;;-0.11;100.00;96757.06;5022482;28;20220;-71
2022/12/04 01:39:26;;;;;;;13.23;11.10;;;;;;;-0.04;100.00;96760.81;5009815;28;20203;-70
2022/12/04 01:41:55;;;;;;;12.70;11.20;;;;;;;-0.06;100.00;96754.91;5018503;28;20211;-72
2022/12/04 01:44:25;;;;;;;11.50;10.40;;;;;;;0.03;100.00;96760.31;5024945;28;20202;-70
2022/12/04 01:46:54;;;;;;;11.83;10.37;;;;;;;0.07;100.00;96756.47;5002262;28;20232;-71
2022/12/04 01:49:24;;;;;;;12.30;10.00;;;;;;;0.13;100.00;96762.00;5032656;28;20200;-72
2022/12/04 01:51:54;;;;;;;12.30;11.10;;;;;;;0.13;100.00;96756.81;5028070;28;20239;-72
2022/12/04 01:54:27;;;;;;;12.70;11.40;;;;;;;0.11;100.00;96760.47;5035421;28;20216;-70
2022/12/04 01:57:00;;;;;;;12.90;11.67;;;;;;;0.04;100.00;96754.97;5019003;28;20269;-70
2022/12/04 01:59:32;;;;;;;12.23;11.13;;;;;;;0.00;100.00;96756.19;5005702;28;20300;-71
2022/12/04 02:02:03;;;;;;;12.77;10.70;;;;;;;-0.06;100.00;96760.13;4973423;28;20214;-70
2022/12/04 02:04:31;;;;;;;13.10;11.43;;;;;;;-0.06;100.00;96757.50;5020535;28;20482;-72
2022/12/04 02:06:59;;;;;;;12.43;11.13;;;;;;;-0.10;100.00;96758.72;5030969;28;20219;-72
2022/12/04 02:09:27;;;;;;;12.60;11.30;;;;;;;-0.06;100.00;96756.69;5031482;28;20428;-71
2022/12/04 02:12:03;;;;;;;12.53;11.23;;;;;;;-0.10;100.00;96747.47;5015554;28;20207;-70
2022/12/04 02:14:38;;;;;;;13.20;11.57;;;;;;;-0.08;100.00;96743.81;5007170;28;20337;-72
2022/12/04 02:17:11;;;;;;;13.93;12.53;;;;;;;-0.06;100.00;96757.50;4965865;28;20624;-72
2022/12/04 02:20:04;;;;;;;13.67;12.27;;;;;;;-0.07;100.00;96760.22;5028390;28;20975;-71
2022/12/04 02:22:50;;;;;;;13.77;12.30;;;;;;;-0.10;100.00;96756.13;4981270;28;20223;-71
2022/12/04 02:25:24;;;;;;;12.83;11.27;;;;;;;-0.08;100.00;96766.41;5027297;28;20891;-69
2022/12/04 02:28:01;;;;;;;14.83;13.23;;;;;;;-0.11;100.00;96764.88;4999297;28;20208;-70
2022/12/04 02:30:29;;;;;;;13.30;11.83;;;;;;;-0.11;100.00;96764.06;5027730;28;20231;-70
2022/12/04 02:33:01;;;;;;;14.27;12.50;;;;;;;-0.12;100.00;96773.66;5037098;28;20198;-71
2022/12/04 02:35:33;;;;;;;14.17;12.40;;;;;;;-0.10;100.00;96770.91;5026992;28;20239;-71
2022/12/04 02:38:06;;;;;;;13.90;12.43;;;;;;;-0.11;100.00;96767.50;5006905;28;20208;-71
2022/12/04 02:40:41;;;;;;;15.73;12.23;;;;;;;-0.13;100.00;96753.78;5033066;28;20207;-70
2022/12/04 02:43:12;;;;;;;13.80;12.40;;;;;;;-0.14;100.00;96757.34;5013113;28;20203;-71
2022/12/04 02:45:44;;;;;;;13.33;11.80;;;;;;;-0.13;100.00;96752.94;5031279;28;20222;-69
2022/12/04 02:48:15;;;;;;;13.83;12.00;;;;;;;-0.12;100.00;96754.59;5025321;28;20866;-70
2022/12/04 02:50:43;;;;;;;13.30;11.53;;;;;;;-0.10;100.00;96755.28;5000930;28;20226;-71
2022/12/04 02:53:15;;;;;;;12.90;11.60;;;;;;;-0.11;100.00;96736.25;5014583;28;20439;-73
2022/12/04 02:55:45;;;;;;;13.57;12.20;;;;;;;-0.08;100.00;96737.75;5029452;28;20258;-70
2022/12/04 02:58:17;;;;;;;13.97;12.53;;;;;;;-0.12;100.00;96729.38;5004721;28;20215;-72
2022/12/04 03:00:47;;;;;;;13.73;11.93;;;;;;;-0.13;100.00;96732.09;5014113;28;20706;-70
2022/12/04 03:03:19;;;;;;;13.67;12.23;;;;;;;-0.15;100.00;96729.66;5021227;28;20356;-72
2022/12/04 03:05:53;;;;;;;12.93;11.47;;;;;;;-0.18;100.00;96716.88;4994749;28;20219;-68
2022/12/04 03:08:24;;;;;;;13.30;11.87;;;;;;;-0.20;100.00;96724.81;4972784;28;20215;-72
2022/12/04 03:10:56;;;;;;;13.40;11.60;;;;;;;-0.21;100.00;96715.34;5022643;28;20312;-71
2022/12/04 03:13:30;;;;;;;13.37;11.83;;;;;;;-0.21;100.00;96710.13;4972440;28;21492;-70
2022/12/04 03:16:01;;;;;;;14.43;12.47;;;;;;;-0.25;100.00;96705.31;5020646;28;21147;-71
2022/12/04 03:18:33;;;;;;;13.93;11.17;;;;;;;-0.25;100.00;96702.69;5022584;28;20219;-68
2022/12/04 03:21:04;;;;;;;13.60;12.17;;;;;;;-0.25;100.00;96700.94;5015878;28;20399;-71
2022/12/04 03:23:34;;;;;;;13.87;12.13;;;;;;;-0.25;100.00;96695.72;4943754;28;20826;-71
2022/12/04 03:26:05;;;;;;;12.77;11.13;;;;;;;-0.26;100.00;96696.69;4988242;28;20780;-69
2022/12/04 03:28:42;;;;;;;16.50;12.80;;;;;;;-0.25;100.00;96698.34;4985507;28;20204;-70
2022/12/04 03:31:11;;;;;;;14.87;13.07;;;;;;;-0.22;100.00;96697.22;5004616;28;20570;-69
2022/12/04 03:33:41;;;;;;;17.63;15.52;;;;;;;-0.22;100.00;96690.25;5020148;28;20432;-71
2022/12/04 03:36:14;;;;;;;15.57;12.53;;;;;;;-0.16;100.00;96694.94;5021053;28;20541;-68
2022/12/04 03:38:46;;;;;;;17.77;15.88;;;;;;;-0.14;100.00;96687.03;4976811;28;20641;-71
2022/12/04 03:41:17;;;;;;;14.23;12.73;;;;;;;-0.15;100.00;96695.78;5023482;28;20396;-72
2022/12/04 03:43:50;;;;;;;12.77;11.50;;;;;;;-0.17;100.00;96692.50;5006950;28;20216;-73
2022/12/04 03:46:23;;;;;;;12.67;11.37;;;;;;;-0.18;100.00;96680.44;5015258;28;20507;-70
2022/12/04 03:48:55;;;;;;;12.97;11.47;;;;;;;-0.14;100.00;96684.41;5002594;28;20204;-70
2022/12/04 03:51:27;;;;;;;11.83;10.63;;;;;;;-0.16;100.00;96681.94;5020421;28;20207;-71
2022/12/04 03:53:58;;;;;;;12.60;10.77;;;;;;;-0.14;100.00;96681.81;4987147;28;20219;-72
2022/12/04 03:56:28;;;;;;;12.47;10.83;;;;;;;-0.18;100.00;96672.63;5018571;28;20326;-70
2022/12/04 03:59:00;;;;;;;12.57;11.30;;;;;;;-0.17;100.00;96671.66;5022024;28;20900;-70
2022/12/04 04:01:37;;;;;;;14.70;11.53;;;;;;;-0.16;100.00;96660.28;5009386;28;21275;-72
2022/12/04 04:04:07;;;;;;;12.70;10.90;;;;;;;-0.19;100.00;96665.72;4967979;28;20211;-71
2022/12/04 04:06:38;;;;;;;14.30;11.80;;;;;;;-0.23;100.00;96673.00;5025350;28;20887;-71
2022/12/04 04:09:10;;;;;;;14.50;11.73;;;;;;;-0.27;100.00;96666.38;4982471;28;20489;-69
2022/12/04 04:11:42;;;;;;;13.60;12.13;;;;;;;-0.26;100.00;96673.25;5031440;28;20298;-70
2022/12/04 04:25:24;;;;;;;12.23;10.53;;;;;;;-0.40;100.00;96656.16;4994465;28;20227;-70
2022/12/04 04:27:52;;;;;;;13.23;10.77;;;;;;;-0.40;100.00;96658.78;5029967;28;20865;-69
2022/12/04 04:30:21;;;;;;;10.77;9.57;;;;;;;-0.43;100.00;96656.44;4960116;28;20207;-69
2022/12/04 04:32:55;;;;;;;10.27;9.17;;;;;;;-0.44;100.00;96668.59;5024640;28;20211;-67
2022/12/04 04:35:30;;;;;;;11.93;10.53;;;;;;;-0.36;100.00;96673.19;5031081;28;20227;-69
2022/12/04 04:38:03;;;;;;;13.57;10.77;;;;;;;-0.35;100.00;96668.81;4990189;28;20222;-69
2022/12/04 04:40:36;;;;;;;12.33;11.03;;;;;;;-0.39;100.00;96668.22;5029993;28;20216;-69
2022/12/04 04:43:08;;;;;;;11.83;10.37;;;;;;;-0.36;100.00;96680.19;5018426;28;20200;-69
2022/12/04 04:45:39;;;;;;;11.97;10.83;;;;;;;-0.35;100.00;96680.03;4980805;28;20635;-68
2022/12/04 04:48:10;;;;;;;13.63;11.37;;;;;;;-0.34;100.00;96681.69;5022927;28;20204;-69
2022/12/04 04:50:38;;;;;;;14.53;11.47;;;;;;;-0.28;100.00;96682.13;5025519;28;20204;-69
2022/12/04 04:53:10;;;;;;;11.93;10.60;;;;;;;-0.26;100.00;96694.06;5006068;28;20896;-68
2022/12/04 04:55:38;;;;;;;12.53;11.07;;;;;;;-0.28;100.00;96698.59;5028709;28;20583;-67
2022/12/04 04:58:08;;;;;;;13.77;12.23;;;;;;;-0.30;100.00;96696.09;5007745;28;20219;-68
2022/12/04 05:00:37;;;;;;;11.87;10.67;;;;;;;-0.22;100.00;96692.88;4991927;28;20212;-67
2022/12/04 05:03:05;;;;;;;13.20;11.57;;;;;;;-0.18;100.00;96691.66;5020443;28;20327;-69
2022/12/04 05:05:33;;;;;;;13.00;11.60;;;;;;;-0.11;100.00;96693.72;5023792;28;20996;-69
2022/12/04 05:08:00;;;;;;;14.07;11.80;;;;;;;-0.10;100.00;96692.78;5002977;28;20571;-68
2022/12/04 05:10:28;;;;;;;12.50;11.00;;;;;;;-0.08;100.00;96686.50;4996489;28;20978;-68
2022/12/04 05:12:56;;;;;;;12.80;11.50;;;;;;;-0.08;100.00;96691.72;5029827;28;20698;-69
2022/12/04 05:15:23;;;;;;;11.90;10.57;;;;;;;-0.06;100.00;96684.59;4982405;28;20715;-66
2022/12/04 05:17:52;;;;;;;14.93;11.47;;;;;;;-0.06;100.00;96671.56;5027998;28;20663;-68
2022/12/04 05:20:19;;;;;;;11.87;10.63;;;;;;;-0.02;100.00;96685.97;5025458;28;20660;-67
2022/12/04 05:22:47;;;;;;;13.37;12.07;;;;;;;0.02;100.00;96689.16;5027572;28;20207;-69
2022/12/04 05:25:15;;;;;;;12.07;10.80;;;;;;;0.05;100.00;96681.09;5005155;28;20227;-69
2022/12/04 05:27:43;;;;;;;12.27;10.97;;;;;;;0.07;100.00;96689.59;5028274;28;20369;-70
2022/12/04 05:30:12;;;;;;;12.17;10.90;;;;;;;0.06;100.00;96693.16;4972020;28;20222;-69
2022/12/04 05:32:39;;;;;;;12.60;10.77;;;;;;;0.11;100.00;96701.41;5020294;28;20204;-68
2022/12/04 05:35:09;;;;;;;12.90;11.37;;;;;;;0.08;100.00;96690.41;4998346;28;20231;-70
2022/12/04 05:37:39;;;;;;;13.23;11.33;;;;;;;0.14;100.00;96701.13;5023634;28;20313;-71
2022/12/04 05:40:08;;;;;;;12.53;10.80;;;;;;;0.15;100.00;96699.34;5003842;28;20844;-70
2022/12/04 05:42:36;;;;;;;13.33;11.83;;;;;;;0.19;100.00;96699.91;5026437;28;20242;-71
2022/12/04 05:45:04;;;;;;;13.90;11.60;;;;;;;0.18;100.00;96706.09;5021093;28;20295;-72
2022/12/04 05:47:32;;;;;;;14.10;12.60;;;;;;;0.13;100.00;96702.09;4981842;28;20223;-71
2022/12/04 05:50:00;;;;;;;15.20;11.83;;;;;;;0.12;100.00;96697.84;5027748;28;20214;-72
2022/12/04 05:52:29;;;;;;;12.83;11.53;;;;;;;0.18;100.00;96700.88;4997618;28;20230;-70
2022/12/04 05:54:56;;;;;;;13.33;11.90;;;;;;;0.22;100.00;96702.25;5029890;28;20300;-69
2022/12/04 05:57:24;;;;;;;13.17;11.77;;;;;;;0.26;100.00;96694.06;4999678;28;20323;-69
2022/12/04 05:59:56;;;;;;;14.27;12.07;;;;;;;0.28;100.00;96696.53;5025746;28;20213;-71
2022/12/04 06:02:24;;;;;;;14.20;12.40;;;;;;;0.24;100.00;96703.78;4991999;28;20214;-70
2022/12/04 06:04:52;;;;;;;13.83;12.30;;;;;;;0.24;100.00;96706.41;5029568;28;20199;-71
2022/12/04 06:07:20;;;;;;;14.90;11.83;;;;;;;0.27;100.00;96705.28;5011240;28;20627;-69
2022/12/04 06:09:49;;;;;;;13.90;12.47;;;;;;;0.28;100.00;96712.16;5028765;28;20215;-70
2022/12/04 06:12:17;;;;;;;12.37;11.13;;;;;;;0.26;100.00;96706.25;4978163;28;20277;-69
2022/12/04 06:14:44;;;;;;;14.97;11.87;;;;;;;0.26;100.00;96704.47;5029343;28;20207;-70
2022/12/04 06:17:12;;;;;;;14.83;13.30;;;;;;;0.24;100.00;96700.34;4988503;28;20239;-70
2022/12/04 06:19:39;;;;;;;14.70;12.33;;;;;;;0.21;100.00;96706.66;4999536;28;20207;-72
2022/12/04 06:22:07;;;;;;;13.30;11.30;;;;;;;0.23;100.00;96704.75;5021150;28;20203;-69
2022/12/04 06:24:35;;;;;;;12.90;11.60;;;;;;;0.22;100.00;96702.25;5012193;28;20225;-72
2022/12/04 06:27:04;;;;;;;14.03;11.97;;;;;;;0.13;100.00;96688.22;5004063;28;20228;-71
2022/12/04 06:29:51;;;;;;;16.23;12.50;;;;;;;0.18;100.00;96704.28;5026754;28;20877;-73
2022/12/04 06:32:19;;;;;;;13.63;12.23;;;;;;;0.21;100.00;96700.59;5009735;28;20199;-72
2022/12/04 06:34:51;;;;;;;13.53;11.23;;;;;;;0.23;100.00;96699.53;4993592;28;20234;-72
2022/12/04 06:37:19;;;;;;;15.13;13.07;;;;;;;0.25;100.00;96700.22;4990546;28;20219;-70
2022/12/04 06:39:46;;;;;;;12.97;11.40;;;;;;;0.23;100.00;96691.72;5036448;28;20242;-75
2022/12/04 06:42:15;;;;;;;13.33;11.57;;;;;;;0.20;100.00;96693.75;5037374;28;20204;-73
2022/12/04 06:44:43;;;;;;;13.07;11.67;;;;;;;0.17;100.00;96705.25;5027385;28;20204;-71
2022/12/04 06:47:12;;;;;;;13.57;11.73;;;;;;;0.06;100.00;96703.56;5036780;28;20198;-72
2022/12/04 06:49:40;;;;;;;14.13;12.67;;;;;;;0.05;100.00;96695.88;5034885;28;20195;-72
2022/12/04 06:52:07;;;;;;;13.30;11.90;;;;;;;0.00;100.00;96706.69;5039955;28;20199;-72
2022/12/04 06:54:35;;;;;;;12.67;11.37;;;;;;;-0.03;100.00;96709.53;4992972;28;20207;-73
2022/12/04 06:57:03;;;;;;;12.50;11.20;;;;;;;-0.02;100.00;96714.63;5026882;28;20990;-72
2022/12/04 06:59:32;;;;;;;12.90;11.40;;;;;;;-0.08;100.00;96712.53;4973169;28;20210;-71
2022/12/04 07:02:00;;;;;;;12.77;11.40;;;;;;;-0.12;100.00;96710.31;5018454;28;20725;-71
2022/12/04 07:04:28;;;;;;;12.53;11.17;;;;;;;-0.15;100.00;96707.00;4999975;28;20204;-71
2022/12/04 07:06:56;;;;;;;11.97;10.63;;;;;;;-0.15;100.00;96706.22;5023539;28;20227;-72
2022/12/04 07:09:24;;;;;;;12.67;11.40;;;;;;;-0.11;100.00;96705.00;4973281;28;20224;-71
2022/12/04 07:11:53;;;;;;;14.13;11.83;;;;;;;-0.10;100.00;96704.03;5011617;28;20204;-71
2022/12/04 07:14:22;;;;;;;13.90;11.73;;;;;;;-0.11;100.00;96691.13;5018002;28;20295;-71
2022/12/04 07:16:51;;;;;;;13.50;12.00;;;;;;;-0.10;100.00;96684.97;5013309;28;20419;-70
2022/12/04 07:19:19;;;;;;;13.57;12.13;;;;;;;-0.10;100.00;96684.97;5026919;28;20308;-71
2022/12/04 07:21:46;;;;;;;15.37;12.00;;;;;;;-0.09;100.00;96682.25;5021882;28;20262;-70
2022/12/04 07:24:16;;;;;;;14.93;11.00;;;;;;;-0.04;100.00;96671.41;4968868;28;20201;-71
2022/12/04 07:26:44;;;;;;;16.87;13.17;;;;;;;-0.03;100.00;96675.69;4968389;28;20242;-71
2022/12/04 07:29:12;;;;;;;12.80;11.33;;;;;;;0.00;100.00;96670.22;4997079;28;20726;-72
2022/12/04 07:31:40;;;;;;;14.50;12.70;;;;;;;0.03;100.00;96674.34;5001578;28;20218;-72
2022/12/04 07:34:09;;;;;;;13.47;12.07;;;;;;;0.03;100.00;96675.19;5027787;28;20200;-69
2022/12/04 07:36:37;;;;;;;15.07;11.27;;;;;;;0.06;100.00;96666.25;5025909;28;20254;-71
2022/12/04 07:39:05;;;;;;;16.33;12.40;;;;;;;0.06;100.00;96659.28;5020439;28;20211;-69
2022/12/04 07:41:33;;;;;;;13.23;11.70;;;;;;;0.09;100.00;96655.59;4961846;28;20670;-70
2022/12/04 07:44:00;;;;;;;16.23;12.07;;;;;;;0.13;100.00;96657.81;5026604;28;20598;-70
2022/12/04 07:46:28;;;;;;;13.00;11.70;;;;;;;0.20;100.00;96665.94;4974453;28;20987;-71
2022/12/04 07:48:57;;;;;;;13.57;12.20;;;;;;;0.26;100.00;96675.81;5033246;28;20505;-73
2022/12/04 07:51:29;;;;;;;12.27;11.07;;;;;;;0.29;100.00;96682.53;5005598;28;20682;-69
2022/12/04 07:53:57;;;;;;;13.20;11.83;;;;;;;0.32;100.00;96687.47;5027373;28;20203;-71
2022/12/04 07:56:30;;;;;;;13.70;11.87;;;;;;;0.36;100.00;96688.88;4961266;28;21151;-71
2022/12/04 07:58:59;;;;;;;14.63;12.47;;;;;;;0.43;100.00;96691.78;5030520;28;20672;-70
2022/12/04 08:01:27;;;;;;;14.00;12.43;;;;;;;0.48;100.00;96691.38;5001316;28;21118;-70
2022/12/04 08:03:56;;;;;;;14.37;13.07;;;;;;;0.55;100.00;96695.91;4967696;28;20437;-70
2022/12/04 08:06:25;;;;;;;13.30;12.00;;;;;;;0.50;100.00;96690.28;5020424;28;20315;-72
2022/12/04 08:08:56;;;;;;;12.70;11.40;;;;;;;0.61;100.00;96691.97;5023617;28;20284;-68
2022/12/04 08:11:25;;;;;;;14.93;12.87;;;;;;;0.58;100.00;96702.66;4976393;28;20419;-72
2022/12/04 08:13:54;;;;;;;13.63;12.20;;;;;;;0.66;100.00;96691.56;4983828;28;20257;-70
2022/12/04 08:16:22;;;;;;;13.50;12.17;;;;;;;0.60;100.00;96695.53;5022345;28;20693;-71
2022/12/04 08:18:50;;;;;;;13.57;12.17;;;;;;;0.64;100.00;96693.50;4970601;28;20231;-71
2022/12/04 08:21:19;;;;;;;12.90;11.53;;;;;;;0.67;100.00;96703.66;5022101;28;20208;-71
2022/12/04 08:23:48;;;;;;;11.83;10.63;;;;;;;0.73;100.00;96703.13;5025798;28;20665;-72
2022/12/04 08:26:18;;;;;;;13.13;11.83;;;;;;;0.69;100.00;96705.16;5005051;28;20236;-72
2022/12/04 08:28:46;;;;;;;13.13;11.93;;;;;;;0.66;100.00;96700.22;4983347;28;20483;-73
2022/12/04 08:31:15;;;;;;;12.73;11.43;;;;;;;0.73;100.00;96695.28;5016308;28;20210;-70
2022/12/04 08:33:45;;;;;;;16.40;12.03;;;;;;;0.77;100.00;96696.66;5002254;28;20208;-72
2022/12/04 08:36:14;;;;;;;11.20;10.20;;;;;;;0.80;100.00;96691.19;4999538;28;20227;-71
2022/12/04 08:38:43;;;;;;;11.27;10.17;;;;;;;0.80;100.00;96685.97;5027441;28;20220;-71
2022/12/04 08:41:12;;;;;;;13.43;10.83;;;;;;;0.84;100.00;96687.34;5009091;28;20747;-73
2022/12/04 08:43:41;;;;;;;12.93;11.60;;;;;;;0.91;100.00;96686.78;4970710;28;20508;-73
2022/12/04 08:46:10;;;;;;;11.70;10.57;;;;;;;0.96;100.00;96698.47;5023521;28;20224;-72
2022/12/04 08:48:39;;;;;;;12.73;11.53;;;;;;;0.96;100.00;96693.25;4998200;28;20201;-72
2022/12/04 08:51:07;;;;;;;13.13;10.30;;;;;;;0.98;100.00;96688.72;5022461;28;20203;-70
2022/12/04 08:53:36;;;;;;;12.03;10.67;;;;;;;0.95;100.00;96689.00;5020707;28;20200;-72
2022/12/04 08:56:04;;;;;;;12.60;11.30;;;;;;;0.98;100.00;96698.34;5015482;28;20232;-72
2022/12/04 08:58:32;;;;;;;10.67;9.67;;;;;;;1.05;100.00;96702.06;5002886;28;22410;-70
2022/12/04 09:01:05;;;;;;;12.37;10.63;;;;;;;1.10;100.00;96699.88;4949376;28;20215;-73
2022/12/04 09:03:33;;;;;;;11.70;10.50;;;;;;;1.15;100.00;96713.34;5009732;28;20207;-72
2022/12/04 09:06:02;;;;;;;10.10;9.10;;;;;;;1.26;100.00;96703.72;5003892;28;20236;-70
2022/12/04 09:08:30;;;;;;;11.67;10.47;;;;;;;1.42;100.00;96696.16;5016607;28;20602;-71
2022/12/04 09:11:03;;;;;;;10.70;9.70;;;;;;;1.36;100.00;96693.28;4971766;28;20313;-73
2022/12/04 09:13:31;;;;;;;10.73;9.63;;;;;;;1.32;100.00;96679.66;5032104;28;20192;-71
2022/12/04 09:15:58;;;;;;;12.83;10.63;;;;;;;1.27;100.00;96680.09;5004818;28;20232;-71
2022/12/04 09:18:28;;;;;;;11.97;10.73;;;;;;;1.33;100.00;96681.34;5026671;28;20661;-70
2022/12/04 09:20:56;;;;;;;11.60;10.07;;;;;;;1.41;100.00;96680.63;5026184;28;20230;-71
2022/12/04 09:23:25;;;;;;;10.67;9.67;;;;;;;1.56;100.00;96687.09;5001652;28;20652;-70
2022/12/04 09:25:52;;;;;;;11.57;10.57;;;;;;;1.68;100.00;96692.16;5022223;28;20751;-71
2022/12/04 09:28:20;;;;;;;10.10;9.17;;;;;;;1.71;100.00;96697.94;5029624;28;20216;-72
2022/12/04 09:30:56;;;;;;;10.13;9.13;;;;;;;1.75;100.00;96708.09;4979081;28;20459;-72
2022/12/04 09:33:24;;;;;;;10.50;9.40;;;;;;;1.75;100.00;96702.88;4997514;28;20493;-71
2022/12/04 09:35:54;;;;;;;11.60;10.43;;;;;;;1.87;100.00;96704.34;5001225;28;20567;-73
2022/12/04 09:38:21;;;;;;;11.40;10.27;;;;;;;1.87;100.00;96699.13;4997801;28;20607;-72
2022/12/04 09:40:54;;;;;;;10.83;9.83;;;;;;;1.85;100.00;96696.66;5030134;28;20415;-72
2022/12/04 09:43:27;;;;;;;10.50;9.47;;;;;;;1.92;100.00;96699.53;5029255;28;20203;-71
2022/12/04 09:45:59;;;;;;;10.90;9.97;;;;;;;2.08;100.00;96687.63;4982768;28;21490;-71
2022/12/04 09:48:32;;;;;;;10.37;9.30;;;;;;;2.09;100.00;96679.66;5023689;28;20220;-70
2022/12/04 09:51:02;;;;;;;10.73;9.73;;;;;;;2.13;100.00;96675.81;5027737;28;20207;-71
2022/12/04 09:53:36;;;;;;;11.47;10.40;;;;;;;2.25;100.00;96684.28;4977628;28;20650;-70
2022/12/04 09:56:05;;;;;;;11.97;10.77;;;;;;;2.44;100.00;96679.94;5023810;28;20233;-73
2022/12/04 09:58:40;;;;;;;10.87;9.73;;;;;;;2.52;100.00;96680.06;5025340;28;20222;-72
2022/12/04 10:01:18;;;;;;;10.90;9.87;;;;;;;2.55;100.00;96660.63;4982932;28;20218;-69
2022/12/04 10:03:46;;;;;;;10.37;9.37;;;;;;;2.53;100.00;96660.78;5024007;28;20552;-72
2022/12/04 10:06:18;;;;;;;10.43;9.43;;;;;;;2.60;100.00;96668.84;5023859;28;20315;-71
2022/12/04 10:08:51;;;;;;;10.93;9.90;;;;;;;2.84;100.00;96660.44;4974439;28;20787;-70
2022/12/04 10:11:23;;;;;;;10.97;9.73;;;;;;;3.07;100.00;96643.50;5027699;28;20300;-68
2022/12/04 10:14:37;;;;;;;11.27;10.03;;;;;;;3.03;100.00;96633.31;5015923;28;20236;-71
2022/12/04 10:17:20;;;;;;;11.33;10.23;;;;;;;2.81;100.00;96629.31;4918228;28;20229;-71
2022/12/04 10:19:54;;;;;;;10.50;9.40;;;;;;;2.87;100.00;96623.53;4988079;28;20714;-70
2022/12/04 10:22:27;;;;;;;10.60;9.53;;;;;;;2.81;100.00;96624.09;4985826;28;20233;-71
2022/12/04 10:24:56;;;;;;;10.93;9.90;;;;;;;2.97;100.00;96633.09;4975920;28;20222;-71
2022/12/04 10:27:27;;;;;;;10.07;9.07;;;;;;;3.17;100.00;96629.31;4994687;28;20206;-69
2022/12/04 10:29:57;;;;;;;11.00;10.00;;;;;;;3.23;100.00;96630.53;5016990;28;20310;-69
2022/12/04 10:32:27;;;;;;;10.07;9.17;;;;;;;3.31;100.00;96621.94;4969799;28;20227;-68
2022/12/04 10:34:57;;;;;;;10.60;9.63;;;;;;;3.26;100.00;96616.31;5020100;28;20211;-69
2022/12/04 10:37:27;;;;;;;18.93;9.50;;;;;;;3.14;100.00;96610.50;4990458;28;21772;-70
2022/12/04 10:39:58;;;;;;;10.93;9.93;;;;;;;3.25;100.00;96612.06;4993989;28;20859;-71
2022/12/04 10:42:30;;;;;;;10.43;9.43;;;;;;;3.30;100.00;96610.59;4972007;28;20859;-70
2022/12/04 10:44:58;;;;;;;10.43;9.53;;;;;;;3.39;100.00;96601.03;5019105;28;20214;-71
2022/12/04 10:47:26;;;;;;;10.57;9.57;;;;;;;3.47;100.00;96608.94;5019342;28;20208;-69
2022/12/04 10:49:58;;;;;;;10.63;9.53;;;;;;;3.39;100.00;96600.19;4948741;28;20223;-71
2022/12/04 10:52:28;;;;;;;11.77;10.63;;;;;;;3.42;100.00;96585.00;5018562;28;20920;-70
2022/12/04 10:54:58;;;;;;;9.30;8.40;;;;;;;3.45;100.00;96582.06;5000001;28;20246;-71
2022/12/04 10:57:36;;;;;;;10.40;9.40;;;;;;;3.48;100.00;96575.72;4972897;28;21406;-71
2022/12/04 11:00:06;;;;;;;11.83;10.73;;;;;;;3.51;100.00;96577.19;5024942;28;20303;-69
2022/12/04 11:02:34;;;;;;;10.70;9.80;;;;;;;3.64;100.00;96568.94;5016207;28;20211;-70
2022/12/04 11:05:04;;;;;;;13.23;11.33;;;;;;;3.76;100.00;96555.41;4979017;28;20250;-72
2022/12/04 11:07:36;;;;;;;11.07;10.07;;;;;;;3.91;100.00;96557.41;4964154;28;20226;-71
2022/12/04 11:10:07;;;;;;;10.00;9.10;;;;;;;3.95;100.00;96564.00;4981956;28;21012;-71
2022/12/04 11:12:34;;;;;;;12.13;10.93;;;;;;;4.05;100.00;96562.09;5025053;28;20627;-70
2022/12/04 11:15:13;;;;;;;11.10;10.00;;;;;;;3.89;100.00;96564.63;4942885;28;20833;-70
2022/12/04 11:17:40;;;;;;;11.63;10.50;;;;;;;3.93;100.00;96552.03;4980132;28;20203;-71
2022/12/04 11:20:15;;;;;;;10.90;9.77;;;;;;;3.94;100.00;96548.44;5011268;28;20306;-71
2022/12/04 11:22:51;;;;;;;11.83;10.73;;;;;;;3.70;100.00;96547.34;4964529;28;20904;-68
2022/12/04 11:25:21;;;;;;;12.03;10.93;;;;;;;3.79;100.00;96542.97;5022971;28;20233;-70
2022/12/04 11:27:52;;;;;;;11.97;10.73;;;;;;;3.94;100.00;96544.00;5014198;28;20207;-71
2022/12/04 11:30:22;;;;;;;12.00;10.80;;;;;;;4.14;100.00;96536.69;4956107;28;20211;-70
2022/12/04 11:32:50;;;;;;;12.93;11.63;;;;;;;4.26;100.00;96539.84;5013825;28;20239;-71
2022/12/04 11:35:22;;;;;;;12.37;11.27;;;;;;;4.31;100.00;96524.44;5020308;28;20336;-70
2022/12/04 11:37:57;;;;;;;12.60;11.40;;;;;;;4.47;100.00;96513.16;4963199;28;20212;-69